sensor_id;sensor_type;location;lat;lon;timestamp;P1;durP1;ratioP1;P2;durP2;ratioP2
11439;SDS011;5776;51.814;4.510;2023-06-26T00:02:07;10.23;;;3.40;;
11439;SDS011;5776;51.814;4.510;2023-06-26T00:04:32;6.28;;;3.45;;
11439;SDS011;5776;51.814;4.510;2023-06-26T00:06:58;8.65;;;3.17;;
11439;SDS011;5776;51.814;4.510;2023-06-26T00:09:24;4.60;;;2.78;;
11439;SDS011;5776;51.814;4.510;2023-06-26T00:11:50;4.32;;;2.70;;
11439;SDS011;5776;51.814;4.510;2023-06-26T00:14:18;12.40;;;3.47;;
11439;SDS011;5776;51.814;4.510;2023-06-26T00:16:47;6.30;;;3.00;;
11439;SDS011;5776;51.814;4.510;2023-06-26T00:19:15;4.45;;;2.40;;
11439;SDS011;5776;51.814;4.510;2023-06-26T00:21:41;8.98;;;3.15;;
11439;SDS011;5776;51.814;4.510;2023-06-26T00:24:12;6.85;;;3.20;;
11439;SDS011;5776;51.814;4.510;2023-06-26T00:26:39;5.32;;;2.50;;
11439;SDS011;5776;51.814;4.510;2023-06-26T00:29:05;7.88;;;2.40;;
11439;SDS011;5776;51.814;4.510;2023-06-26T00:31:31;6.30;;;2.63;;
11439;SDS011;5776;51.814;4.510;2023-06-26T00:33:57;8.02;;;3.05;;
11439;SDS011;5776;51.814;4.510;2023-06-26T00:36:23;6.53;;;2.47;;
11439;SDS011;5776;51.814;4.510;2023-06-26T00:38:49;5.07;;;2.40;;
11439;SDS011;5776;51.814;4.510;2023-06-26T00:41:15;7.50;;;3.00;;
11439;SDS011;5776;51.814;4.510;2023-06-26T00:43:41;6.30;;;2.17;;
11439;SDS011;5776;51.814;4.510;2023-06-26T00:46:08;4.90;;;2.45;;
11439;SDS011;5776;51.814;4.510;2023-06-26T00:48:40;8.38;;;2.92;;
11439;SDS011;5776;51.814;4.510;2023-06-26T00:51:07;8.23;;;2.88;;
11439;SDS011;5776;51.814;4.510;2023-06-26T00:53:34;7.60;;;2.45;;
11439;SDS011;5776;51.814;4.510;2023-06-26T00:56:01;5.50;;;2.55;;
11439;SDS011;5776;51.814;4.510;2023-06-26T00:58:28;8.23;;;2.78;;
11439;SDS011;5776;51.814;4.510;2023-06-26T01:00:54;12.05;;;3.22;;
11439;SDS011;5776;51.814;4.510;2023-06-26T01:03:21;6.95;;;2.88;;
11439;SDS011;5776;51.814;4.510;2023-06-26T01:05:48;10.50;;;3.22;;
11439;SDS011;5776;51.814;4.510;2023-06-26T01:08:17;12.57;;;3.22;;
11439;SDS011;5776;51.814;4.510;2023-06-26T01:10:44;13.98;;;3.67;;
11439;SDS011;5776;51.814;4.510;2023-06-26T01:13:12;7.13;;;2.67;;
11439;SDS011;5776;51.814;4.510;2023-06-26T01:15:39;7.57;;;3.08;;
11439;SDS011;5776;51.814;4.510;2023-06-26T01:18:05;16.70;;;3.50;;
11439;SDS011;5776;51.814;4.510;2023-06-26T01:20:32;12.00;;;2.95;;
11439;SDS011;5776;51.814;4.510;2023-06-26T01:23:15;12.07;;;3.67;;
11439;SDS011;5776;51.814;4.510;2023-06-26T01:28:29;11.02;;;2.90;;
11439;SDS011;5776;51.814;4.510;2023-06-26T01:30:56;10.43;;;3.10;;
11439;SDS011;5776;51.814;4.510;2023-06-26T01:33:24;6.03;;;2.35;;
11439;SDS011;5776;51.814;4.510;2023-06-26T01:35:50;10.07;;;3.30;;
11439;SDS011;5776;51.814;4.510;2023-06-26T01:38:17;8.30;;;3.10;;
11439;SDS011;5776;51.814;4.510;2023-06-26T01:40:44;13.98;;;3.47;;
11439;SDS011;5776;51.814;4.510;2023-06-26T01:45:51;8.60;;;2.78;;
11439;SDS011;5776;51.814;4.510;2023-06-26T01:48:23;15.27;;;3.30;;
11439;SDS011;5776;51.814;4.510;2023-06-26T01:50:53;10.43;;;3.22;;
11439;SDS011;5776;51.814;4.510;2023-06-26T01:53:24;15.05;;;3.10;;
11439;SDS011;5776;51.814;4.510;2023-06-26T01:55:54;8.93;;;2.85;;
11439;SDS011;5776;51.814;4.510;2023-06-26T01:58:26;11.93;;;3.70;;
11439;SDS011;5776;51.814;4.510;2023-06-26T02:00:53;12.25;;;3.17;;
11439;SDS011;5776;51.814;4.510;2023-06-26T02:03:19;11.57;;;3.63;;
11439;SDS011;5776;51.814;4.510;2023-06-26T02:05:45;13.82;;;3.90;;
11439;SDS011;5776;51.814;4.510;2023-06-26T02:08:13;14.80;;;3.95;;
11439;SDS011;5776;51.814;4.510;2023-06-26T02:10:40;12.32;;;3.72;;
11439;SDS011;5776;51.814;4.510;2023-06-26T02:13:06;9.38;;;2.83;;
11439;SDS011;5776;51.814;4.510;2023-06-26T02:15:32;13.00;;;3.88;;
11439;SDS011;5776;51.814;4.510;2023-06-26T02:17:58;17.13;;;4.13;;
11439;SDS011;5776;51.814;4.510;2023-06-26T02:20:24;9.15;;;2.95;;
11439;SDS011;5776;51.814;4.510;2023-06-26T02:22:49;16.05;;;3.90;;
11439;SDS011;5776;51.814;4.510;2023-06-26T02:25:15;13.38;;;3.35;;
11439;SDS011;5776;51.814;4.510;2023-06-26T02:27:43;11.80;;;3.70;;
11439;SDS011;5776;51.814;4.510;2023-06-26T02:30:09;8.45;;;3.38;;
11439;SDS011;5776;51.814;4.510;2023-06-26T02:32:35;11.30;;;3.42;;
11439;SDS011;5776;51.814;4.510;2023-06-26T02:35:01;8.55;;;2.78;;
11439;SDS011;5776;51.814;4.510;2023-06-26T02:37:28;6.88;;;2.65;;
11439;SDS011;5776;51.814;4.510;2023-06-26T02:39:54;14.52;;;3.30;;
11439;SDS011;5776;51.814;4.510;2023-06-26T02:42:20;10.15;;;3.08;;
11439;SDS011;5776;51.814;4.510;2023-06-26T02:44:45;10.55;;;3.13;;
11439;SDS011;5776;51.814;4.510;2023-06-26T02:47:11;9.68;;;2.95;;
11439;SDS011;5776;51.814;4.510;2023-06-26T02:49:37;12.18;;;3.17;;
11439;SDS011;5776;51.814;4.510;2023-06-26T02:52:03;16.80;;;3.58;;
11439;SDS011;5776;51.814;4.510;2023-06-26T02:54:30;12.63;;;3.75;;
11439;SDS011;5776;51.814;4.510;2023-06-26T02:56:56;7.43;;;2.60;;
11439;SDS011;5776;51.814;4.510;2023-06-26T02:59:21;10.93;;;3.50;;
11439;SDS011;5776;51.814;4.510;2023-06-26T03:01:47;6.00;;;2.58;;
11439;SDS011;5776;51.814;4.510;2023-06-26T03:04:13;7.55;;;2.92;;
11439;SDS011;5776;51.814;4.510;2023-06-26T03:06:40;7.95;;;2.50;;
11439;SDS011;5776;51.814;4.510;2023-06-26T03:09:06;8.10;;;2.20;;
11439;SDS011;5776;51.814;4.510;2023-06-26T03:11:32;8.02;;;2.38;;
11439;SDS011;5776;51.814;4.510;2023-06-26T03:13:58;9.77;;;2.78;;
11439;SDS011;5776;51.814;4.510;2023-06-26T03:16:24;9.32;;;2.88;;
11439;SDS011;5776;51.814;4.510;2023-06-26T03:18:50;6.97;;;2.67;;
11439;SDS011;5776;51.814;4.510;2023-06-26T03:21:16;8.30;;;2.40;;
11439;SDS011;5776;51.814;4.510;2023-06-26T03:23:42;10.43;;;2.72;;
11439;SDS011;5776;51.814;4.510;2023-06-26T03:26:08;9.13;;;2.88;;
11439;SDS011;5776;51.814;4.510;2023-06-26T03:28:34;7.57;;;2.60;;
11439;SDS011;5776;51.814;4.510;2023-06-26T03:31:00;11.10;;;2.10;;
11439;SDS011;5776;51.814;4.510;2023-06-26T03:33:26;9.32;;;2.92;;
11439;SDS011;5776;51.814;4.510;2023-06-26T03:35:52;8.18;;;2.42;;
11439;SDS011;5776;51.814;4.510;2023-06-26T03:38:19;10.52;;;2.60;;
11439;SDS011;5776;51.814;4.510;2023-06-26T03:40:44;8.40;;;2.67;;
11439;SDS011;5776;51.814;4.510;2023-06-26T03:43:09;10.05;;;2.53;;
11439;SDS011;5776;51.814;4.510;2023-06-26T03:45:35;12.00;;;2.78;;
11439;SDS011;5776;51.814;4.510;2023-06-26T03:48:01;9.48;;;2.60;;
11439;SDS011;5776;51.814;4.510;2023-06-26T03:50:27;7.85;;;2.47;;
11439;SDS011;5776;51.814;4.510;2023-06-26T03:52:53;6.20;;;2.13;;
11439;SDS011;5776;51.814;4.510;2023-06-26T03:55:21;10.43;;;2.72;;
11439;SDS011;5776;51.814;4.510;2023-06-26T03:57:49;8.15;;;2.47;;
11439;SDS011;5776;51.814;4.510;2023-06-26T04:00:15;8.57;;;3.20;;
11439;SDS011;5776;51.814;4.510;2023-06-26T04:02:41;9.40;;;2.08;;
11439;SDS011;5776;51.814;4.510;2023-06-26T04:05:07;9.52;;;2.75;;
11439;SDS011;5776;51.814;4.510;2023-06-26T04:07:33;8.75;;;2.38;;
11439;SDS011;5776;51.814;4.510;2023-06-26T04:10:00;10.50;;;2.40;;
11439;SDS011;5776;51.814;4.510;2023-06-26T04:12:26;6.55;;;2.20;;
11439;SDS011;5776;51.814;4.510;2023-06-26T04:14:52;7.88;;;2.42;;
11439;SDS011;5776;51.814;4.510;2023-06-26T04:17:18;9.65;;;2.80;;
11439;SDS011;5776;51.814;4.510;2023-06-26T04:19:43;6.70;;;2.53;;
11439;SDS011;5776;51.814;4.510;2023-06-26T04:22:09;8.63;;;2.53;;
11439;SDS011;5776;51.814;4.510;2023-06-26T04:24:35;6.05;;;2.10;;
11439;SDS011;5776;51.814;4.510;2023-06-26T04:27:01;12.63;;;2.20;;
11439;SDS011;5776;51.814;4.510;2023-06-26T04:29:27;8.70;;;2.22;;
11439;SDS011;5776;51.814;4.510;2023-06-26T04:31:54;12.93;;;3.15;;
11439;SDS011;5776;51.814;4.510;2023-06-26T04:34:26;9.00;;;2.17;;
11439;SDS011;5776;51.814;4.510;2023-06-26T04:36:53;6.75;;;2.03;;
11439;SDS011;5776;51.814;4.510;2023-06-26T04:39:19;7.47;;;2.40;;
11439;SDS011;5776;51.814;4.510;2023-06-26T04:41:45;7.25;;;2.40;;
11439;SDS011;5776;51.814;4.510;2023-06-26T04:44:11;9.00;;;2.47;;
11439;SDS011;5776;51.814;4.510;2023-06-26T04:46:38;10.10;;;2.63;;
11439;SDS011;5776;51.814;4.510;2023-06-26T04:49:09;13.32;;;2.58;;
11439;SDS011;5776;51.814;4.510;2023-06-26T04:51:35;7.82;;;2.47;;
11439;SDS011;5776;51.814;4.510;2023-06-26T04:54:07;12.88;;;2.38;;
11439;SDS011;5776;51.814;4.510;2023-06-26T04:56:34;8.75;;;2.35;;
11439;SDS011;5776;51.814;4.510;2023-06-26T04:59:01;6.88;;;1.98;;
11439;SDS011;5776;51.814;4.510;2023-06-26T05:01:27;10.70;;;2.72;;
11439;SDS011;5776;51.814;4.510;2023-06-26T05:03:55;7.00;;;2.20;;
11439;SDS011;5776;51.814;4.510;2023-06-26T05:06:22;7.07;;;2.60;;
11439;SDS011;5776;51.814;4.510;2023-06-26T05:08:48;13.43;;;2.45;;
11439;SDS011;5776;51.814;4.510;2023-06-26T05:11:14;7.65;;;2.45;;
11439;SDS011;5776;51.814;4.510;2023-06-26T05:13:40;7.30;;;2.45;;
11439;SDS011;5776;51.814;4.510;2023-06-26T05:16:06;11.35;;;2.58;;
11439;SDS011;5776;51.814;4.510;2023-06-26T05:18:34;6.20;;;2.38;;
11439;SDS011;5776;51.814;4.510;2023-06-26T05:21:01;7.97;;;2.47;;
11439;SDS011;5776;51.814;4.510;2023-06-26T05:23:30;6.78;;;2.17;;
11439;SDS011;5776;51.814;4.510;2023-06-26T05:25:57;4.78;;;2.00;;
11439;SDS011;5776;51.814;4.510;2023-06-26T05:28:23;6.70;;;2.10;;
11439;SDS011;5776;51.814;4.510;2023-06-26T05:30:50;5.00;;;2.00;;
11439;SDS011;5776;51.814;4.510;2023-06-26T05:33:17;5.28;;;1.27;;
11439;SDS011;5776;51.814;4.510;2023-06-26T05:35:45;7.60;;;1.90;;
11439;SDS011;5776;51.814;4.510;2023-06-26T05:38:12;9.38;;;2.20;;
11439;SDS011;5776;51.814;4.510;2023-06-26T05:56:12;4.80;;;1.13;;
11439;SDS011;5776;51.814;4.510;2023-06-26T05:58:38;2.90;;;1.00;;
11439;SDS011;5776;51.814;4.510;2023-06-26T06:01:06;3.85;;;1.00;;
11439;SDS011;5776;51.814;4.510;2023-06-26T06:03:31;3.42;;;0.93;;
11439;SDS011;5776;51.814;4.510;2023-06-26T06:05:57;4.82;;;0.82;;
11439;SDS011;5776;51.814;4.510;2023-06-26T06:08:23;3.53;;;1.05;;
11439;SDS011;5776;51.814;4.510;2023-06-26T06:10:49;4.70;;;1.15;;
11439;SDS011;5776;51.814;4.510;2023-06-26T06:13:15;5.30;;;1.05;;
11439;SDS011;5776;51.814;4.510;2023-06-26T06:15:41;5.25;;;1.15;;
11439;SDS011;5776;51.814;4.510;2023-06-26T06:18:07;1.92;;;0.70;;
11439;SDS011;5776;51.814;4.510;2023-06-26T06:20:34;4.80;;;1.15;;
11439;SDS011;5776;51.814;4.510;2023-06-26T06:23:00;5.05;;;1.40;;
11439;SDS011;5776;51.814;4.510;2023-06-26T06:25:26;3.13;;;1.00;;
11439;SDS011;5776;51.814;4.510;2023-06-26T06:27:52;6.80;;;1.08;;
11439;SDS011;5776;51.814;4.510;2023-06-26T06:30:18;2.97;;;1.35;;
11439;SDS011;5776;51.814;4.510;2023-06-26T06:32:44;3.08;;;1.00;;
11439;SDS011;5776;51.814;4.510;2023-06-26T06:35:11;2.72;;;1.13;;
11439;SDS011;5776;51.814;4.510;2023-06-26T06:37:37;4.60;;;1.20;;
11439;SDS011;5776;51.814;4.510;2023-06-26T06:40:08;6.32;;;1.20;;
11439;SDS011;5776;51.814;4.510;2023-06-26T06:42:35;5.75;;;1.25;;
11439;SDS011;5776;51.814;4.510;2023-06-26T06:45:04;2.65;;;0.82;;
11439;SDS011;5776;51.814;4.510;2023-06-26T06:47:31;4.35;;;1.05;;
11439;SDS011;5776;51.814;4.510;2023-06-26T06:49:59;6.45;;;1.17;;
11439;SDS011;5776;51.814;4.510;2023-06-26T06:52:36;3.55;;;1.00;;
11439;SDS011;5776;51.814;4.510;2023-06-26T06:55:04;4.38;;;1.42;;
11439;SDS011;5776;51.814;4.510;2023-06-26T06:57:37;3.05;;;0.98;;
11439;SDS011;5776;51.814;4.510;2023-06-26T07:00:05;2.00;;;0.70;;
11439;SDS011;5776;51.814;4.510;2023-06-26T07:02:41;2.67;;;0.80;;
11439;SDS011;5776;51.814;4.510;2023-06-26T07:05:10;4.05;;;1.00;;
11439;SDS011;5776;51.814;4.510;2023-06-26T07:07:36;3.63;;;0.93;;
11439;SDS011;5776;51.814;4.510;2023-06-26T07:10:05;3.78;;;0.95;;
11439;SDS011;5776;51.814;4.510;2023-06-26T07:12:35;4.95;;;0.80;;
11439;SDS011;5776;51.814;4.510;2023-06-26T07:15:02;4.93;;;1.10;;
11439;SDS011;5776;51.814;4.510;2023-06-26T07:17:30;2.85;;;1.10;;
11439;SDS011;5776;51.814;4.510;2023-06-26T07:19:57;3.50;;;0.80;;
11439;SDS011;5776;51.814;4.510;2023-06-26T07:22:23;4.55;;;0.95;;
11439;SDS011;5776;51.814;4.510;2023-06-26T07:24:49;2.45;;;1.02;;
11439;SDS011;5776;51.814;4.510;2023-06-26T07:27:15;2.97;;;0.90;;
11439;SDS011;5776;51.814;4.510;2023-06-26T07:29:42;7.18;;;1.50;;
11439;SDS011;5776;51.814;4.510;2023-06-26T07:32:08;3.70;;;1.40;;
11439;SDS011;5776;51.814;4.510;2023-06-26T07:34:33;2.25;;;0.90;;
11439;SDS011;5776;51.814;4.510;2023-06-26T07:36:59;6.50;;;1.35;;
11439;SDS011;5776;51.814;4.510;2023-06-26T07:39:25;7.65;;;1.67;;
11439;SDS011;5776;51.814;4.510;2023-06-26T07:41:52;4.20;;;1.10;;
11439;SDS011;5776;51.814;4.510;2023-06-26T07:44:17;5.32;;;1.20;;
11439;SDS011;5776;51.814;4.510;2023-06-26T07:46:44;3.40;;;1.00;;
11439;SDS011;5776;51.814;4.510;2023-06-26T07:49:13;4.72;;;1.00;;
11439;SDS011;5776;51.814;4.510;2023-06-26T07:51:38;4.53;;;1.00;;
11439;SDS011;5776;51.814;4.510;2023-06-26T07:54:05;3.92;;;1.13;;
11439;SDS011;5776;51.814;4.510;2023-06-26T07:56:31;8.57;;;1.40;;
11439;SDS011;5776;51.814;4.510;2023-06-26T07:58:57;2.83;;;1.23;;
11439;SDS011;5776;51.814;4.510;2023-06-26T08:01:23;4.68;;;1.20;;
11439;SDS011;5776;51.814;4.510;2023-06-26T08:03:49;3.83;;;1.20;;
11439;SDS011;5776;51.814;4.510;2023-06-26T08:06:15;5.60;;;0.90;;
11439;SDS011;5776;51.814;4.510;2023-06-26T08:08:41;5.07;;;1.00;;
11439;SDS011;5776;51.814;4.510;2023-06-26T08:11:07;4.18;;;0.93;;
11439;SDS011;5776;51.814;4.510;2023-06-26T08:13:33;3.72;;;1.00;;
11439;SDS011;5776;51.814;4.510;2023-06-26T08:15:58;3.45;;;1.23;;
11439;SDS011;5776;51.814;4.510;2023-06-26T08:18:24;3.92;;;1.13;;
11439;SDS011;5776;51.814;4.510;2023-06-26T08:20:50;6.57;;;1.00;;
11439;SDS011;5776;51.814;4.510;2023-06-26T08:23:16;3.40;;;1.15;;
11439;SDS011;5776;51.814;4.510;2023-06-26T08:25:42;5.30;;;1.13;;
11439;SDS011;5776;51.814;4.510;2023-06-26T08:28:08;4.28;;;1.00;;
11439;SDS011;5776;51.814;4.510;2023-06-26T08:30:34;3.80;;;1.08;;
11439;SDS011;5776;51.814;4.510;2023-06-26T08:33:00;4.45;;;1.20;;
11439;SDS011;5776;51.814;4.510;2023-06-26T08:35:26;1.50;;;0.80;;
11439;SDS011;5776;51.814;4.510;2023-06-26T08:37:52;5.13;;;1.50;;
11439;SDS011;5776;51.814;4.510;2023-06-26T08:40:20;4.65;;;1.20;;
11439;SDS011;5776;51.814;4.510;2023-06-26T08:42:47;3.00;;;0.90;;
11439;SDS011;5776;51.814;4.510;2023-06-26T08:45:13;4.50;;;1.55;;
11439;SDS011;5776;51.814;4.510;2023-06-26T08:47:38;7.53;;;1.35;;
11439;SDS011;5776;51.814;4.510;2023-06-26T08:50:08;3.55;;;0.88;;
11439;SDS011;5776;51.814;4.510;2023-06-26T08:52:37;2.90;;;0.80;;
11439;SDS011;5776;51.814;4.510;2023-06-26T08:55:09;4.30;;;0.93;;
11439;SDS011;5776;51.814;4.510;2023-06-26T08:57:37;5.25;;;1.25;;
11439;SDS011;5776;51.814;4.510;2023-06-26T09:00:03;3.35;;;1.13;;
11439;SDS011;5776;51.814;4.510;2023-06-26T09:02:30;4.30;;;1.42;;
11439;SDS011;5776;51.814;4.510;2023-06-26T09:04:56;5.15;;;1.23;;
11439;SDS011;5776;51.814;4.510;2023-06-26T09:07:23;4.10;;;1.23;;
11439;SDS011;5776;51.814;4.510;2023-06-26T09:09:49;5.03;;;1.30;;
11439;SDS011;5776;51.814;4.510;2023-06-26T09:12:15;2.63;;;1.20;;
11439;SDS011;5776;51.814;4.510;2023-06-26T09:14:41;5.03;;;1.55;;
11439;SDS011;5776;51.814;4.510;2023-06-26T09:17:07;5.53;;;1.20;;
11439;SDS011;5776;51.814;4.510;2023-06-26T09:19:35;3.40;;;1.02;;
11439;SDS011;5776;51.814;4.510;2023-06-26T09:22:03;2.47;;;1.13;;
11439;SDS011;5776;51.814;4.510;2023-06-26T09:24:29;4.10;;;1.45;;
11439;SDS011;5776;51.814;4.510;2023-06-26T09:26:55;3.78;;;1.30;;
11439;SDS011;5776;51.814;4.510;2023-06-26T09:29:21;4.35;;;1.45;;
11439;SDS011;5776;51.814;4.510;2023-06-26T09:31:47;4.13;;;1.30;;
11439;SDS011;5776;51.814;4.510;2023-06-26T09:34:13;5.50;;;1.48;;
11439;SDS011;5776;51.814;4.510;2023-06-26T09:36:39;12.40;;;1.40;;
11439;SDS011;5776;51.814;4.510;2023-06-26T09:39:08;5.72;;;1.10;;
11439;SDS011;5776;51.814;4.510;2023-06-26T09:41:36;4.82;;;1.45;;
11439;SDS011;5776;51.814;4.510;2023-06-26T09:44:05;4.70;;;1.30;;
11439;SDS011;5776;51.814;4.510;2023-06-26T09:46:33;7.28;;;1.52;;
11439;SDS011;5776;51.814;4.510;2023-06-26T09:49:09;4.07;;;1.55;;
11439;SDS011;5776;51.814;4.510;2023-06-26T09:51:40;8.00;;;1.40;;
11439;SDS011;5776;51.814;4.510;2023-06-26T09:54:07;3.53;;;1.08;;
11439;SDS011;5776;51.814;4.510;2023-06-26T09:56:37;5.93;;;1.20;;
11439;SDS011;5776;51.814;4.510;2023-06-26T09:59:04;4.10;;;1.13;;
11439;SDS011;5776;51.814;4.510;2023-06-26T10:01:31;4.57;;;1.20;;
11439;SDS011;5776;51.814;4.510;2023-06-26T10:03:58;7.25;;;0.93;;
11439;SDS011;5776;51.814;4.510;2023-06-26T10:06:28;2.95;;;1.20;;
11439;SDS011;5776;51.814;4.510;2023-06-26T10:09:16;5.50;;;1.33;;
11439;SDS011;5776;51.814;4.510;2023-06-26T10:11:46;4.43;;;1.02;;
11439;SDS011;5776;51.814;4.510;2023-06-26T10:14:23;2.28;;;1.05;;
11439;SDS011;5776;51.814;4.510;2023-06-26T10:16:52;3.63;;;1.13;;
11439;SDS011;5776;51.814;4.510;2023-06-26T10:19:23;5.30;;;1.25;;
11439;SDS011;5776;51.814;4.510;2023-06-26T10:21:55;4.32;;;1.17;;
11439;SDS011;5776;51.814;4.510;2023-06-26T10:24:23;2.17;;;1.10;;
11439;SDS011;5776;51.814;4.510;2023-06-26T10:26:59;4.00;;;1.13;;
11439;SDS011;5776;51.814;4.510;2023-06-26T10:29:29;1.92;;;1.10;;
11439;SDS011;5776;51.814;4.510;2023-06-26T10:31:58;2.60;;;1.30;;
11439;SDS011;5776;51.814;4.510;2023-06-26T10:34:25;3.35;;;1.00;;
11439;SDS011;5776;51.814;4.510;2023-06-26T10:37:02;4.97;;;1.10;;
11439;SDS011;5776;51.814;4.510;2023-06-26T10:39:48;3.67;;;1.00;;
11439;SDS011;5776;51.814;4.510;2023-06-26T10:42:18;5.25;;;1.00;;
11439;SDS011;5776;51.814;4.510;2023-06-26T10:44:45;1.45;;;0.70;;
11439;SDS011;5776;51.814;4.510;2023-06-26T10:47:31;3.38;;;0.90;;
11439;SDS011;5776;51.814;4.510;2023-06-26T10:53:06;6.18;;;0.75;;
11439;SDS011;5776;51.814;4.510;2023-06-26T10:55:33;2.42;;;0.70;;
11439;SDS011;5776;51.814;4.510;2023-06-26T10:57:59;2.95;;;0.80;;
11439;SDS011;5776;51.814;4.510;2023-06-26T11:05:37;4.72;;;0.93;;
11439;SDS011;5776;51.814;4.510;2023-06-26T11:08:07;3.92;;;0.90;;
11439;SDS011;5776;51.814;4.510;2023-06-26T11:10:48;3.83;;;0.77;;
11439;SDS011;5776;51.814;4.510;2023-06-26T11:13:18;5.78;;;1.05;;
11439;SDS011;5776;51.814;4.510;2023-06-26T11:15:46;2.13;;;0.90;;
11439;SDS011;5776;51.814;4.510;2023-06-26T11:18:13;1.50;;;0.60;;
11439;SDS011;5776;51.814;4.510;2023-06-26T11:20:40;2.15;;;0.60;;
11439;SDS011;5776;51.814;4.510;2023-06-26T11:23:07;1.52;;;0.63;;
11439;SDS011;5776;51.814;4.510;2023-06-26T11:25:37;2.67;;;0.93;;
11439;SDS011;5776;51.814;4.510;2023-06-26T11:28:04;3.15;;;0.90;;
11439;SDS011;5776;51.814;4.510;2023-06-26T11:30:31;5.03;;;0.73;;
11439;SDS011;5776;51.814;4.510;2023-06-26T11:33:07;1.75;;;0.73;;
11439;SDS011;5776;51.814;4.510;2023-06-26T11:35:34;2.17;;;0.93;;
11439;SDS011;5776;51.814;4.510;2023-06-26T11:38:01;1.63;;;0.60;;
11439;SDS011;5776;51.814;4.510;2023-06-26T11:40:33;6.28;;;0.80;;
11439;SDS011;5776;51.814;4.510;2023-06-26T11:43:01;3.42;;;0.82;;
11439;SDS011;5776;51.814;4.510;2023-06-26T11:45:29;2.15;;;0.80;;
11439;SDS011;5776;51.814;4.510;2023-06-26T11:47:57;1.77;;;0.70;;
11439;SDS011;5776;51.814;4.510;2023-06-26T11:50:24;2.42;;;1.00;;
11439;SDS011;5776;51.814;4.510;2023-06-26T11:52:57;2.15;;;0.65;;
11439;SDS011;5776;51.814;4.510;2023-06-26T11:55:24;2.22;;;0.70;;
11439;SDS011;5776;51.814;4.510;2023-06-26T11:57:52;3.90;;;0.90;;
11439;SDS011;5776;51.814;4.510;2023-06-26T12:00:19;5.30;;;0.90;;
11439;SDS011;5776;51.814;4.510;2023-06-26T12:02:46;4.47;;;0.82;;
11439;SDS011;5776;51.814;4.510;2023-06-26T12:05:13;2.72;;;0.70;;
11439;SDS011;5776;51.814;4.510;2023-06-26T12:07:41;1.58;;;0.80;;
11439;SDS011;5776;51.814;4.510;2023-06-26T12:10:10;4.53;;;0.90;;
11439;SDS011;5776;51.814;4.510;2023-06-26T12:12:37;2.05;;;0.93;;
11439;SDS011;5776;51.814;4.510;2023-06-26T12:15:04;1.83;;;0.63;;
11439;SDS011;5776;51.814;4.510;2023-06-26T12:17:32;2.92;;;0.90;;
11439;SDS011;5776;51.814;4.510;2023-06-26T12:19:58;2.10;;;0.80;;
11439;SDS011;5776;51.814;4.510;2023-06-26T12:22:24;2.20;;;1.00;;
11439;SDS011;5776;51.814;4.510;2023-06-26T12:25:00;2.17;;;1.10;;
11439;SDS011;5776;51.814;4.510;2023-06-26T12:27:26;3.50;;;1.20;;
11439;SDS011;5776;51.814;4.510;2023-06-26T12:29:53;1.80;;;0.50;;
11439;SDS011;5776;51.814;4.510;2023-06-26T12:32:19;5.25;;;1.00;;
11439;SDS011;5776;51.814;4.510;2023-06-26T12:34:49;2.28;;;0.73;;
11439;SDS011;5776;51.814;4.510;2023-06-26T12:37:15;2.17;;;0.77;;
11439;SDS011;5776;51.814;4.510;2023-06-26T12:39:45;2.15;;;0.70;;
11439;SDS011;5776;51.814;4.510;2023-06-26T12:42:13;3.38;;;0.73;;
11439;SDS011;5776;51.814;4.510;2023-06-26T12:44:41;1.90;;;0.70;;
11439;SDS011;5776;51.814;4.510;2023-06-26T12:47:06;3.95;;;0.88;;
11439;SDS011;5776;51.814;4.510;2023-06-26T12:49:33;2.65;;;0.95;;
11439;SDS011;5776;51.814;4.510;2023-06-26T12:52:04;2.05;;;0.80;;
11439;SDS011;5776;51.814;4.510;2023-06-26T12:54:31;2.35;;;0.88;;
11439;SDS011;5776;51.814;4.510;2023-06-26T12:56:58;2.53;;;0.90;;
11439;SDS011;5776;51.814;4.510;2023-06-26T12:59:24;1.25;;;0.55;;
11439;SDS011;5776;51.814;4.510;2023-06-26T13:01:51;1.95;;;0.73;;
11439;SDS011;5776;51.814;4.510;2023-06-26T13:04:17;2.60;;;0.70;;
11439;SDS011;5776;51.814;4.510;2023-06-26T13:06:43;2.45;;;0.60;;
11439;SDS011;5776;51.814;4.510;2023-06-26T13:09:09;1.88;;;0.93;;
11439;SDS011;5776;51.814;4.510;2023-06-26T13:11:35;2.45;;;0.80;;
11439;SDS011;5776;51.814;4.510;2023-06-26T13:14:02;2.72;;;0.45;;
11439;SDS011;5776;51.814;4.510;2023-06-26T13:16:29;2.25;;;0.60;;
11439;SDS011;5776;51.814;4.510;2023-06-26T13:18:55;2.83;;;0.77;;
11439;SDS011;5776;51.814;4.510;2023-06-26T13:21:23;1.48;;;0.50;;
11439;SDS011;5776;51.814;4.510;2023-06-26T13:23:49;3.67;;;0.77;;
11439;SDS011;5776;51.814;4.510;2023-06-26T13:26:16;2.95;;;0.68;;
11439;SDS011;5776;51.814;4.510;2023-06-26T13:28:41;4.35;;;0.70;;
11439;SDS011;5776;51.814;4.510;2023-06-26T13:31:07;2.33;;;1.05;;
11439;SDS011;5776;51.814;4.510;2023-06-26T13:33:33;3.38;;;0.65;;
11439;SDS011;5776;51.814;4.510;2023-06-26T13:35:59;2.97;;;0.90;;
11439;SDS011;5776;51.814;4.510;2023-06-26T13:38:25;4.85;;;0.93;;
11439;SDS011;5776;51.814;4.510;2023-06-26T13:40:52;3.03;;;0.70;;
11439;SDS011;5776;51.814;4.510;2023-06-26T13:43:20;5.93;;;0.93;;
11439;SDS011;5776;51.814;4.510;2023-06-26T13:45:47;5.05;;;0.82;;
11439;SDS011;5776;51.814;4.510;2023-06-26T13:48:13;2.40;;;0.95;;
11439;SDS011;5776;51.814;4.510;2023-06-26T13:50:40;2.90;;;0.80;;
11439;SDS011;5776;51.814;4.510;2023-06-26T13:53:05;3.30;;;1.25;;
11439;SDS011;5776;51.814;4.510;2023-06-26T13:57:52;1.85;;;0.82;;
11439;SDS011;5776;51.814;4.510;2023-06-26T14:00:17;4.38;;;0.75;;
11439;SDS011;5776;51.814;4.510;2023-06-26T14:02:45;4.65;;;0.90;;
11439;SDS011;5776;51.814;4.510;2023-06-26T14:05:11;3.35;;;0.90;;
11439;SDS011;5776;51.814;4.510;2023-06-26T14:07:38;1.10;;;0.60;;
11439;SDS011;5776;51.814;4.510;2023-06-26T14:10:04;2.20;;;0.90;;
11439;SDS011;5776;51.814;4.510;2023-06-26T14:12:34;4.40;;;0.82;;
11439;SDS011;5776;51.814;4.510;2023-06-26T14:15:00;2.67;;;0.63;;
11439;SDS011;5776;51.814;4.510;2023-06-26T14:17:26;3.55;;;0.88;;
11439;SDS011;5776;51.814;4.510;2023-06-26T14:19:53;2.08;;;0.60;;
11439;SDS011;5776;51.814;4.510;2023-06-26T14:22:19;1.88;;;0.82;;
11439;SDS011;5776;51.814;4.510;2023-06-26T14:24:45;1.25;;;0.65;;
11439;SDS011;5776;51.814;4.510;2023-06-26T14:27:11;2.80;;;0.70;;
11439;SDS011;5776;51.814;4.510;2023-06-26T14:29:36;1.08;;;0.60;;
11439;SDS011;5776;51.814;4.510;2023-06-26T14:32:03;2.05;;;0.80;;
11439;SDS011;5776;51.814;4.510;2023-06-26T14:34:29;7.20;;;0.82;;
11439;SDS011;5776;51.814;4.510;2023-06-26T14:36:55;3.28;;;0.82;;
11439;SDS011;5776;51.814;4.510;2023-06-26T14:39:21;2.70;;;0.85;;
11439;SDS011;5776;51.814;4.510;2023-06-26T14:41:47;1.55;;;0.73;;
11439;SDS011;5776;51.814;4.510;2023-06-26T14:44:16;1.95;;;0.90;;
11439;SDS011;5776;51.814;4.510;2023-06-26T14:46:42;2.63;;;0.90;;
11439;SDS011;5776;51.814;4.510;2023-06-26T14:49:08;3.00;;;0.90;;
11439;SDS011;5776;51.814;4.510;2023-06-26T14:51:34;1.98;;;0.80;;
11439;SDS011;5776;51.814;4.510;2023-06-26T14:54:00;2.88;;;0.80;;
11439;SDS011;5776;51.814;4.510;2023-06-26T14:56:27;3.33;;;0.82;;
11439;SDS011;5776;51.814;4.510;2023-06-26T14:58:53;2.42;;;0.80;;
11439;SDS011;5776;51.814;4.510;2023-06-26T15:01:19;3.28;;;0.68;;
11439;SDS011;5776;51.814;4.510;2023-06-26T15:03:46;2.63;;;1.05;;
11439;SDS011;5776;51.814;4.510;2023-06-26T15:06:12;2.63;;;1.00;;
11439;SDS011;5776;51.814;4.510;2023-06-26T15:08:38;5.18;;;0.90;;
11439;SDS011;5776;51.814;4.510;2023-06-26T15:11:04;3.30;;;0.80;;
11439;SDS011;5776;51.814;4.510;2023-06-26T15:13:30;2.70;;;1.10;;
11439;SDS011;5776;51.814;4.510;2023-06-26T15:15:56;1.33;;;0.75;;
11439;SDS011;5776;51.814;4.510;2023-06-26T15:18:22;2.70;;;1.13;;
11439;SDS011;5776;51.814;4.510;2023-06-26T15:20:48;3.90;;;0.85;;
11439;SDS011;5776;51.814;4.510;2023-06-26T15:23:14;1.90;;;0.90;;
11439;SDS011;5776;51.814;4.510;2023-06-26T15:25:40;3.55;;;1.17;;
11439;SDS011;5776;51.814;4.510;2023-06-26T15:28:06;2.42;;;0.90;;
11439;SDS011;5776;51.814;4.510;2023-06-26T15:30:32;3.75;;;0.75;;
11439;SDS011;5776;51.814;4.510;2023-06-26T15:32:58;2.03;;;1.00;;